sensor_id;sensor_type;location;lat;lon;timestamp;pressure;altitude;pressure_sealevel;temperature;humidity
70198;BME280;57582;-34.876;138.628;2023-09-18T00:00:35;100940;;;23.43;45.33
70198;BME280;57582;-34.876;138.628;2023-09-18T00:03:34;100932;;;23.33;45.33
70198;BME280;57582;-34.876;138.628;2023-09-18T00:06:34;100935;;;23.40;45.10
70198;BME280;57582;-34.876;138.628;2023-09-18T00:09:34;100930;;;23.65;44.12
70198;BME280;57582;-34.876;138.628;2023-09-18T00:12:35;100951;;;23.50;45.30
70198;BME280;57582;-34.876;138.628;2023-09-18T00:15:34;100937;;;23.59;45.01
70198;BME280;57582;-34.876;138.628;2023-09-18T00:18:34;100943;;;23.58;45.02
70198;BME280;57582;-34.876;138.628;2023-09-18T00:21:34;100944;;;23.77;45.04
70198;BME280;57582;-34.876;138.628;2023-09-18T00:24:35;100944;;;23.30;45.92
70198;BME280;57582;-34.876;138.628;2023-09-18T00:27:35;100956;;;23.54;45.95
70198;BME280;57582;-34.876;138.628;2023-09-18T00:30:35;100970;;;23.68;45.35
70198;BME280;57582;-34.876;138.628;2023-09-18T00:33:35;100979;;;23.73;44.90
70198;BME280;57582;-34.876;138.628;2023-09-18T00:36:35;100990;;;23.60;45.59
70198;BME280;57582;-34.876;138.628;2023-09-18T00:39:35;100993;;;23.55;45.35
70198;BME280;57582;-34.876;138.628;2023-09-18T00:42:35;100979;;;23.57;45.81
70198;BME280;57582;-34.876;138.628;2023-09-18T00:45:35;100979;;;23.63;45.65
70198;BME280;57582;-34.876;138.628;2023-09-18T00:48:35;100968;;;23.37;46.48
70198;BME280;57582;-34.876;138.628;2023-09-18T00:51:35;100967;;;23.16;46.91
70198;BME280;57582;-34.876;138.628;2023-09-18T00:54:35;100970;;;23.43;47.23
70198;BME280;57582;-34.876;138.628;2023-09-18T00:57:35;100971;;;23.55;46.64
70198;BME280;57582;-34.876;138.628;2023-09-18T01:00:35;100950;;;23.56;46.71
70198;BME280;57582;-34.876;138.628;2023-09-18T01:03:35;100939;;;23.29;47.35
70198;BME280;57582;-34.876;138.628;2023-09-18T01:06:35;100938;;;23.17;47.61
70198;BME280;57582;-34.876;138.628;2023-09-18T01:09:35;100931;;;23.36;48.10
70198;BME280;57582;-34.876;138.628;2023-09-18T01:12:37;100916;;;23.37;47.60
70198;BME280;57582;-34.876;138.628;2023-09-18T01:15:37;100909;;;23.54;46.89
70198;BME280;57582;-34.876;138.628;2023-09-18T01:18:35;100925;;;23.64;47.51
70198;BME280;57582;-34.876;138.628;2023-09-18T01:21:35;100930;;;23.93;47.07
70198;BME280;57582;-34.876;138.628;2023-09-18T01:24:36;100945;;;23.92;45.95
70198;BME280;57582;-34.876;138.628;2023-09-18T01:27:35;100938;;;23.65;46.43
70198;BME280;57582;-34.876;138.628;2023-09-18T01:30:35;100932;;;23.77;46.96
70198;BME280;57582;-34.876;138.628;2023-09-18T01:33:35;100918;;;23.96;46.75
70198;BME280;57582;-34.876;138.628;2023-09-18T01:36:35;100917;;;24.22;46.51
70198;BME280;57582;-34.876;138.628;2023-09-18T01:39:35;100921;;;24.49;45.09
70198;BME280;57582;-34.876;138.628;2023-09-18T01:42:35;100908;;;24.55;44.11
70198;BME280;57582;-34.876;138.628;2023-09-18T01:45:35;100908;;;24.50;44.89
70198;BME280;57582;-34.876;138.628;2023-09-18T01:48:35;100902;;;24.67;44.12
70198;BME280;57582;-34.876;138.628;2023-09-18T01:51:35;100902;;;24.88;44.50
70198;BME280;57582;-34.876;138.628;2023-09-18T01:54:35;100879;;;25.03;44.02
70198;BME280;57582;-34.876;138.628;2023-09-18T01:57:35;100860;;;25.18;43.30
70198;BME280;57582;-34.876;138.628;2023-09-18T02:00:35;100878;;;25.30;42.57
70198;BME280;57582;-34.876;138.628;2023-09-18T02:03:35;100887;;;25.46;42.25
70198;BME280;57582;-34.876;138.628;2023-09-18T02:06:35;100879;;;25.66;41.88
70198;BME280;57582;-34.876;138.628;2023-09-18T02:09:35;100895;;;25.76;41.42
70198;BME280;57582;-34.876;138.628;2023-09-18T02:12:35;100883;;;25.55;41.82
70198;BME280;57582;-34.876;138.628;2023-09-18T02:15:36;100859;;;25.51;41.36
70198;BME280;57582;-34.876;138.628;2023-09-18T02:18:35;100851;;;25.64;41.82
70198;BME280;57582;-34.876;138.628;2023-09-18T02:21:35;100855;;;25.36;41.45
70198;BME280;57582;-34.876;138.628;2023-09-18T02:24:35;100855;;;25.36;41.13
70198;BME280;57582;-34.876;138.628;2023-09-18T02:27:35;100870;;;25.39;40.91
70198;BME280;57582;-34.876;138.628;2023-09-18T02:30:35;100857;;;25.06;42.15
70198;BME280;57582;-34.876;138.628;2023-09-18T02:33:35;100862;;;25.10;42.75
70198;BME280;57582;-34.876;138.628;2023-09-18T02:36:35;100862;;;25.39;42.57
70198;BME280;57582;-34.876;138.628;2023-09-18T02:39:35;100824;;;25.09;42.21
70198;BME280;57582;-34.876;138.628;2023-09-18T02:42:35;100859;;;25.19;42.55
70198;BME280;57582;-34.876;138.628;2023-09-18T02:45:35;100856;;;25.42;42.57
70198;BME280;57582;-34.876;138.628;2023-09-18T02:48:35;100869;;;25.41;43.21
70198;BME280;57582;-34.876;138.628;2023-09-18T02:51:35;100855;;;25.53;43.12
70198;BME280;57582;-34.876;138.628;2023-09-18T02:54:35;100828;;;25.70;42.34
70198;BME280;57582;-34.876;138.628;2023-09-18T02:57:35;100824;;;25.83;41.88
70198;BME280;57582;-34.876;138.628;2023-09-18T03:00:40;100808;;;25.95;40.86
70198;BME280;57582;-34.876;138.628;2023-09-18T03:03:35;100805;;;25.85;40.90
70198;BME280;57582;-34.876;138.628;2023-09-18T03:06:37;100802;;;25.86;40.84
70198;BME280;57582;-34.876;138.628;2023-09-18T03:09:35;100784;;;25.92;41.77
70198;BME280;57582;-34.876;138.628;2023-09-18T03:12:35;100779;;;25.96;41.82
70198;BME280;57582;-34.876;138.628;2023-09-18T03:15:35;100794;;;25.93;39.63
70198;BME280;57582;-34.876;138.628;2023-09-18T03:18:35;100790;;;26.16;38.26
70198;BME280;57582;-34.876;138.628;2023-09-18T03:21:35;100786;;;26.33;37.85
70198;BME280;57582;-34.876;138.628;2023-09-18T03:24:35;100790;;;26.38;38.65
70198;BME280;57582;-34.876;138.628;2023-09-18T03:27:35;100785;;;26.53;38.39
70198;BME280;57582;-34.876;138.628;2023-09-18T03:30:35;100778;;;26.69;37.77
70198;BME280;57582;-34.876;138.628;2023-09-18T03:33:35;100766;;;26.30;36.93
70198;BME280;57582;-34.876;138.628;2023-09-18T03:36:35;100782;;;26.11;38.12
70198;BME280;57582;-34.876;138.628;2023-09-18T03:39:35;100784;;;26.12;38.98
70198;BME280;57582;-34.876;138.628;2023-09-18T03:42:35;100779;;;26.27;39.00
70198;BME280;57582;-34.876;138.628;2023-09-18T03:45:35;100759;;;26.37;38.99
70198;BME280;57582;-34.876;138.628;2023-09-18T03:48:35;100742;;;26.13;38.97
70198;BME280;57582;-34.876;138.628;2023-09-18T03:51:35;100734;;;26.06;38.27
70198;BME280;57582;-34.876;138.628;2023-09-18T03:54:35;100738;;;25.97;37.95
70198;BME280;57582;-34.876;138.628;2023-09-18T03:57:35;100748;;;25.82;38.70
70198;BME280;57582;-34.876;138.628;2023-09-18T04:00:35;100756;;;25.93;39.43
70198;BME280;57582;-34.876;138.628;2023-09-18T04:03:35;100758;;;25.96;38.94
70198;BME280;57582;-34.876;138.628;2023-09-18T04:06:43;100770;;;26.10;39.26
70198;BME280;57582;-34.876;138.628;2023-09-18T04:09:35;100762;;;26.02;38.81
70198;BME280;57582;-34.876;138.628;2023-09-18T04:12:35;100761;;;25.83;39.55
70198;BME280;57582;-34.876;138.628;2023-09-18T04:15:35;100763;;;25.96;39.69
70198;BME280;57582;-34.876;138.628;2023-09-18T04:18:35;100753;;;26.10;38.80
70198;BME280;57582;-34.876;138.628;2023-09-18T04:21:35;100738;;;26.14;38.86
70198;BME280;57582;-34.876;138.628;2023-09-18T04:24:35;100735;;;26.23;37.25
70198;BME280;57582;-34.876;138.628;2023-09-18T04:27:35;100719;;;26.33;36.61
70198;BME280;57582;-34.876;138.628;2023-09-18T04:30:35;100713;;;26.32;36.63
70198;BME280;57582;-34.876;138.628;2023-09-18T04:33:35;100692;;;26.20;37.61
70198;BME280;57582;-34.876;138.628;2023-09-18T04:36:35;100682;;;26.27;37.43
70198;BME280;57582;-34.876;138.628;2023-09-18T04:39:35;100676;;;26.30;36.58
70198;BME280;57582;-34.876;138.628;2023-09-18T04:42:35;100677;;;25.99;37.33
70198;BME280;57582;-34.876;138.628;2023-09-18T04:45:35;100679;;;25.95;38.82
70198;BME280;57582;-34.876;138.628;2023-09-18T04:48:35;100674;;;26.19;38.30
70198;BME280;57582;-34.876;138.628;2023-09-18T04:51:35;100696;;;26.39;36.96
70198;BME280;57582;-34.876;138.628;2023-09-18T04:54:35;100682;;;26.44;37.20
70198;BME280;57582;-34.876;138.628;2023-09-18T04:57:35;100670;;;26.42;37.45
70198;BME280;57582;-34.876;138.628;2023-09-18T05:00:35;100645;;;26.08;38.93
70198;BME280;57582;-34.876;138.628;2023-09-18T05:03:35;100642;;;26.28;38.04
70198;BME280;57582;-34.876;138.628;2023-09-18T05:06:35;100642;;;26.43;37.37
70198;BME280;57582;-34.876;138.628;2023-09-18T05:09:35;100627;;;26.64;36.29
70198;BME280;57582;-34.876;138.628;2023-09-18T05:12:38;100619;;;26.84;36.04
70198;BME280;57582;-34.876;138.628;2023-09-18T05:15:35;100619;;;26.79;36.59
70198;BME280;57582;-34.876;138.628;2023-09-18T05:18:35;100627;;;26.78;36.62
70198;BME280;57582;-34.876;138.628;2023-09-18T05:21:35;100619;;;26.79;36.68
70198;BME280;57582;-34.876;138.628;2023-09-18T05:24:37;100618;;;26.68;37.02
70198;BME280;57582;-34.876;138.628;2023-09-18T05:27:35;100613;;;26.69;36.70
70198;BME280;57582;-34.876;138.628;2023-09-18T05:30:35;100609;;;26.73;37.31
70198;BME280;57582;-34.876;138.628;2023-09-18T05:33:35;100601;;;26.50;36.77
70198;BME280;57582;-34.876;138.628;2023-09-18T05:36:36;100609;;;26.60;37.56
70198;BME280;57582;-34.876;138.628;2023-09-18T05:39:35;100612;;;26.55;36.28
70198;BME280;57582;-34.876;138.628;2023-09-18T05:42:36;100613;;;26.66;36.32
70198;BME280;57582;-34.876;138.628;2023-09-18T05:45:35;100624;;;26.76;36.02
70198;BME280;57582;-34.876;138.628;2023-09-18T05:48:36;100629;;;26.85;36.09
70198;BME280;57582;-34.876;138.628;2023-09-18T05:51:35;100620;;;26.85;36.19
70198;BME280;57582;-34.876;138.628;2023-09-18T05:54:35;100602;;;26.82;35.74
70198;BME280;57582;-34.876;138.628;2023-09-18T05:57:35;100592;;;26.95;36.55
70198;BME280;57582;-34.876;138.628;2023-09-18T06:00:36;100580;;;26.93;36.77
70198;BME280;57582;-34.876;138.628;2023-09-18T06:03:35;100586;;;27.03;35.21
70198;BME280;57582;-34.876;138.628;2023-09-18T06:06:35;100577;;;27.11;34.90
70198;BME280;57582;-34.876;138.628;2023-09-18T06:09:35;100567;;;27.22;36.17
70198;BME280;57582;-34.876;138.628;2023-09-18T06:12:38;100563;;;27.23;34.65
70198;BME280;57582;-34.876;138.628;2023-09-18T06:15:35;100554;;;27.27;35.18
70198;BME280;57582;-34.876;138.628;2023-09-18T06:18:35;100560;;;27.07;35.14
70198;BME280;57582;-34.876;138.628;2023-09-18T06:21:35;100553;;;27.26;35.23
70198;BME280;57582;-34.876;138.628;2023-09-18T06:24:36;100552;;;27.46;35.16
70198;BME280;57582;-34.876;138.628;2023-09-18T06:27:36;100546;;;27.73;34.82
70198;BME280;57582;-34.876;138.628;2023-09-18T06:30:35;100551;;;27.98;33.58
70198;BME280;57582;-34.876;138.628;2023-09-18T06:33:35;100548;;;28.11;33.68
70198;BME280;57582;-34.876;138.628;2023-09-18T06:36:36;100545;;;28.26;32.67
70198;BME280;57582;-34.876;138.628;2023-09-18T06:39:35;100559;;;28.14;32.22
70198;BME280;57582;-34.876;138.628;2023-09-18T06:42:35;100549;;;27.97;32.41
70198;BME280;57582;-34.876;138.628;2023-09-18T06:45:35;100545;;;28.06;32.83
70198;BME280;57582;-34.876;138.628;2023-09-18T06:48:36;100550;;;28.19;32.24
70198;BME280;57582;-34.876;138.628;2023-09-18T06:51:35;100542;;;28.04;31.81
70198;BME280;57582;-34.876;138.628;2023-09-18T06:54:35;100547;;;27.75;32.50
70198;BME280;57582;-34.876;138.628;2023-09-18T06:57:35;100546;;;27.83;32.81
70198;BME280;57582;-34.876;138.628;2023-09-18T07:00:36;100543;;;27.95;32.67
70198;BME280;57582;-34.876;138.628;2023-09-18T07:03:35;100546;;;28.03;33.00
70198;BME280;57582;-34.876;138.628;2023-09-18T07:06:35;100551;;;27.98;32.51
70198;BME280;57582;-34.876;138.628;2023-09-18T07:09:35;100546;;;28.07;32.17
70198;BME280;57582;-34.876;138.628;2023-09-18T07:12:36;100555;;;28.00;32.02
70198;BME280;57582;-34.876;138.628;2023-09-18T07:15:35;100561;;;27.96;31.76
70198;BME280;57582;-34.876;138.628;2023-09-18T07:18:35;100561;;;27.82;31.55
70198;BME280;57582;-34.876;138.628;2023-09-18T07:21:35;100561;;;27.82;31.51
70198;BME280;57582;-34.876;138.628;2023-09-18T07:24:36;100550;;;27.65;31.88
70198;BME280;57582;-34.876;138.628;2023-09-18T07:27:35;100550;;;27.65;32.59
70198;BME280;57582;-34.876;138.628;2023-09-18T07:30:35;100550;;;27.55;33.26
70198;BME280;57582;-34.876;138.628;2023-09-18T07:33:35;100541;;;27.33;32.43
70198;BME280;57582;-34.876;138.628;2023-09-18T07:36:37;100538;;;27.30;33.19
70198;BME280;57582;-34.876;138.628;2023-09-18T07:39:35;100536;;;27.25;33.56
70198;BME280;57582;-34.876;138.628;2023-09-18T07:42:35;100534;;;27.22;33.44
70198;BME280;57582;-34.876;138.628;2023-09-18T07:45:37;100530;;;27.16;33.31
70198;BME280;57582;-34.876;138.628;2023-09-18T07:48:36;100530;;;26.84;33.63
70198;BME280;57582;-34.876;138.628;2023-09-18T07:51:35;100521;;;26.77;36.04
70198;BME280;57582;-34.876;138.628;2023-09-18T07:54:35;100529;;;26.63;38.23
70198;BME280;57582;-34.876;138.628;2023-09-18T07:57:35;100537;;;26.51;40.54
70198;BME280;57582;-34.876;138.628;2023-09-18T08:00:36;100539;;;26.27;42.90
70198;BME280;57582;-34.876;138.628;2023-09-18T08:03:35;100538;;;25.97;43.71
70198;BME280;57582;-34.876;138.628;2023-09-18T08:06:35;100545;;;25.70;45.46
70198;BME280;57582;-34.876;138.628;2023-09-18T08:09:35;100543;;;25.26;46.98
70198;BME280;57582;-34.876;138.628;2023-09-18T08:12:36;100538;;;24.94;47.87
70198;BME280;57582;-34.876;138.628;2023-09-18T08:15:35;100532;;;24.76;48.24
70198;BME280;57582;-34.876;138.628;2023-09-18T08:18:35;100530;;;24.63;49.03
70198;BME280;57582;-34.876;138.628;2023-09-18T08:21:35;100530;;;24.46;49.12
70198;BME280;57582;-34.876;138.628;2023-09-18T08:24:36;100523;;;24.38;49.35
70198;BME280;57582;-34.876;138.628;2023-09-18T08:27:36;100499;;;24.32;49.33
70198;BME280;57582;-34.876;138.628;2023-09-18T08:30:35;100502;;;24.19;50.03
70198;BME280;57582;-34.876;138.628;2023-09-18T08:33:35;100503;;;24.10;50.17
70198;BME280;57582;-34.876;138.628;2023-09-18T08:36:36;100507;;;23.90;51.10
70198;BME280;57582;-34.876;138.628;2023-09-18T08:39:35;100509;;;23.81;50.87
70198;BME280;57582;-34.876;138.628;2023-09-18T08:42:37;100503;;;23.81;51.04
70198;BME280;57582;-34.876;138.628;2023-09-18T08:48:36;100500;;;23.86;51.00
70198;BME280;57582;-34.876;138.628;2023-09-18T08:51:35;100502;;;23.85;51.00
70198;BME280;57582;-34.876;138.628;2023-09-18T08:54:35;100514;;;23.84;51.15
70198;BME280;57582;-34.876;138.628;2023-09-18T08:57:35;100522;;;23.84;51.43
70198;BME280;57582;-34.876;138.628;2023-09-18T09:00:37;100523;;;23.72;51.51
70198;BME280;57582;-34.876;138.628;2023-09-18T09:03:37;100540;;;23.70;51.53
70198;BME280;57582;-34.876;138.628;2023-09-18T09:06:36;100545;;;23.73;51.27
70198;BME280;57582;-34.876;138.628;2023-09-18T09:09:35;100550;;;23.73;50.79
70198;BME280;57582;-34.876;138.628;2023-09-18T09:12:52;100570;;;23.69;50.60
70198;BME280;57582;-34.876;138.628;2023-09-18T09:15:44;100573;;;23.57;50.57
70198;BME280;57582;-34.876;138.628;2023-09-18T09:18:36;100582;;;23.49;50.69
70198;BME280;57582;-34.876;138.628;2023-09-18T09:21:39;100598;;;23.46;50.59
70198;BME280;57582;-34.876;138.628;2023-09-18T09:27:43;100604;;;23.32;50.47
70198;BME280;57582;-34.876;138.628;2023-09-18T09:30:36;100606;;;23.33;50.40
70198;BME280;57582;-34.876;138.628;2023-09-18T09:33:36;100613;;;23.31;50.15
70198;BME280;57582;-34.876;138.628;2023-09-18T09:36:36;100615;;;23.30;50.16
70198;BME280;57582;-34.876;138.628;2023-09-18T09:39:50;100628;;;23.33;49.89
70198;BME280;57582;-34.876;138.628;2023-09-18T09:42:39;100620;;;23.34;49.85
70198;BME280;57582;-34.876;138.628;2023-09-18T09:45:36;100623;;;23.38;49.69
70198;BME280;57582;-34.876;138.628;2023-09-18T09:48:37;100623;;;23.30;49.78
70198;BME280;57582;-34.876;138.628;2023-09-18T09:51:35;100627;;;23.29;49.81
70198;BME280;57582;-34.876;138.628;2023-09-18T09:54:35;100620;;;23.30;50.11
70198;BME280;57582;-34.876;138.628;2023-09-18T09:57:46;100638;;;23.35;50.14
70198;BME280;57582;-34.876;138.628;2023-09-18T10:00:45;100666;;;23.52;49.42
70198;BME280;57582;-34.876;138.628;2023-09-18T10:03:36;100682;;;23.56;49.49
70198;BME280;57582;-34.876;138.628;2023-09-18T10:06:36;100682;;;23.60;49.20
70198;BME280;57582;-34.876;138.628;2023-09-18T10:09:36;100687;;;23.66;49.13
70198;BME280;57582;-34.876;138.628;2023-09-18T10:12:36;100691;;;23.69;48.82
70198;BME280;57582;-34.876;138.628;2023-09-18T10:15:36;100691;;;23.72;48.90
70198;BME280;57582;-34.876;138.628;2023-09-18T10:24:36;100695;;;23.53;49.38
70198;BME280;57582;-34.876;138.628;2023-09-18T10:27:36;100701;;;23.51;49.32
70198;BME280;57582;-34.876;138.628;2023-09-18T10:30:36;100704;;;23.40;49.71
70198;BME280;57582;-34.876;138.628;2023-09-18T10:33:36;100707;;;23.37;49.64
70198;BME280;57582;-34.876;138.628;2023-09-18T10:36:36;100711;;;23.30;49.77
70198;BME280;57582;-34.876;138.628;2023-09-18T10:39:37;100713;;;23.30;49.82
70198;BME280;57582;-34.876;138.628;2023-09-18T10:42:37;100720;;;23.21;50.20
70198;BME280;57582;-34.876;138.628;2023-09-18T10:45:36;100730;;;23.17;50.28
70198;BME280;57582;-34.876;138.628;2023-09-18T10:48:36;100734;;;23.21;50.16
70198;BME280;57582;-34.876;138.628;2023-09-18T10:51:37;100733;;;23.16;50.14
70198;BME280;57582;-34.876;138.628;2023-09-18T10:54:36;100733;;;23.01;50.34
70198;BME280;57582;-34.876;138.628;2023-09-18T10:57:36;100744;;;22.91;50.56
70198;BME280;57582;-34.876;138.628;2023-09-18T11:00:36;100739;;;22.78;51.08
70198;BME280;57582;-34.876;138.628;2023-09-18T11:03:37;100731;;;22.63;51.21
70198;BME280;57582;-34.876;138.628;2023-09-18T11:09:43;100745;;;22.53;51.70
70198;BME280;57582;-34.876;138.628;2023-09-18T11:12:44;100754;;;21.88;54.25
70198;BME280;57582;-34.876;138.628;2023-09-18T11:15:36;100762;;;21.66;54.93
70198;BME280;57582;-34.876;138.628;2023-09-18T11:18:36;100770;;;21.57;55.30
70198;BME280;57582;-34.876;138.628;2023-09-18T11:21:36;100772;;;21.22;56.06
70198;BME280;57582;-34.876;138.628;2023-09-18T11:24:38;100777;;;21.09;56.27
70198;BME280;57582;-34.876;138.628;2023-09-18T11:27:53;100773;;;21.05;55.79
70198;BME280;57582;-34.876;138.628;2023-09-18T11:30:36;100771;;;20.99;54.68
70198;BME280;57582;-34.876;138.628;2023-09-18T11:33:37;100765;;;20.92;54.48
70198;BME280;57582;-34.876;138.628;2023-09-18T11:36:36;100770;;;20.81;54.40
70198;BME280;57582;-34.876;138.628;2023-09-18T11:39:36;100767;;;20.78;54.32
70198;BME280;57582;-34.876;138.628;2023-09-18T11:42:36;100751;;;20.86;54.25
70198;BME280;57582;-34.876;138.628;2023-09-18T11:45:36;100754;;;20.95;54.20
70198;BME280;57582;-34.876;138.628;2023-09-18T11:48:36;100740;;;21.03;53.91
70198;BME280;57582;-34.876;138.628;2023-09-18T11:51:36;100743;;;21.16;53.86
70198;BME280;57582;-34.876;138.628;2023-09-18T11:54:36;100733;;;21.32;53.77
70198;BME280;57582;-34.876;138.628;2023-09-18T11:57:36;100730;;;21.49;53.49
70198;BME280;57582;-34.876;138.628;2023-09-18T12:00:36;100736;;;21.67;53.23
70198;BME280;57582;-34.876;138.628;2023-09-18T12:03:36;100718;;;21.74;53.20
70198;BME280;57582;-34.876;138.628;2023-09-18T12:06:36;100684;;;19.78;59.05
70198;BME280;57582;-34.876;138.628;2023-09-18T12:09:36;100711;;;19.58;60.21
70198;BME280;57582;-34.876;138.628;2023-09-18T12:12:36;100709;;;19.74;60.41
70198;BME280;57582;-34.876;138.628;2023-09-18T12:15:36;100708;;;19.35;62.10
70198;BME280;57582;-34.876;138.628;2023-09-18T12:18:36;100722;;;19.33;62.23
70198;BME280;57582;-34.876;138.628;2023-09-18T12:21:45;100714;;;19.45;62.37
70198;BME280;57582;-34.876;138.628;2023-09-18T12:24:36;100703;;;19.42;62.79
70198;BME280;57582;-34.876;138.628;2023-09-18T12:27:36;100698;;;19.55;62.58
70198;BME280;57582;-34.876;138.628;2023-09-18T12:30:36;100696;;;19.34;63.54
70198;BME280;57582;-34.876;138.628;2023-09-18T12:33:38;100699;;;19.59;62.87
70198;BME280;57582;-34.876;138.628;2023-09-18T12:36:36;100698;;;19.65;62.65
70198;BME280;57582;-34.876;138.628;2023-09-18T12:39:36;100698;;;19.72;62.46
70198;BME280;57582;-34.876;138.628;2023-09-18T12:42:36;100692;;;19.71;62.48
70198;BME280;57582;-34.876;138.628;2023-09-18T12:45:36;100677;;;19.71;62.46
70198;BME280;57582;-34.876;138.628;2023-09-18T12:48:37;100681;;;19.91;61.96
70198;BME280;57582;-34.876;138.628;2023-09-18T12:51:36;100673;;;19.63;62.62
70198;BME280;57582;-34.876;138.628;2023-09-18T12:54:43;100668;;;19.63;62.52
70198;BME280;57582;-34.876;138.628;2023-09-18T12:57:36;100668;;;19.34;63.49
70198;BME280;57582;-34.876;138.628;2023-09-18T13:00:36;100657;;;18.81;65.12
70198;BME280;57582;-34.876;138.628;2023-09-18T13:03:43;100646;;;18.52;66.32
70198;BME280;57582;-34.876;138.628;2023-09-18T13:06:36;100638;;;18.50;65.12
70198;BME280;57582;-34.876;138.628;2023-09-18T13:09:36;100629;;;18.58;63.48
70198;BME280;57582;-34.876;138.628;2023-09-18T13:12:52;100638;;;18.56;63.35
70198;BME280;57582;-34.876;138.628;2023-09-18T13:15:36;100635;;;18.66;61.82
70198;BME280;57582;-34.876;138.628;2023-09-18T13:18:36;100633;;;18.81;60.57
70198;BME280;57582;-34.876;138.628;2023-09-18T13:21:37;100638;;;18.80;60.47
70198;BME280;57582;-34.876;138.628;2023-09-18T13:24:36;100640;;;18.87;60.42
70198;BME280;57582;-34.876;138.628;2023-09-18T13:27:36;100655;;;18.95;60.87
70198;BME280;57582;-34.876;138.628;2023-09-18T13:30:36;100657;;;19.33;60.03
70198;BME280;57582;-34.876;138.628;2023-09-18T13:33:39;100664;;;19.59;59.81
70198;BME280;57582;-34.876;138.628;2023-09-18T13:36:36;100658;;;20.05;58.61
70198;BME280;57582;-34.876;138.628;2023-09-18T13:39:36;100657;;;20.43;57.24
70198;BME280;57582;-34.876;138.628;2023-09-18T13:42:36;100655;;;20.81;56.06
70198;BME280;57582;-34.876;138.628;2023-09-18T13:45:36;100674;;;21.14;54.79
70198;BME280;57582;-34.876;138.628;2023-09-18T13:48:37;100687;;;21.48;53.57
70198;BME280;57582;-34.876;138.628;2023-09-18T13:51:36;100702;;;21.68;52.62
70198;BME280;57582;-34.876;138.628;2023-09-18T13:54:36;100707;;;21.84;51.83
70198;BME280;57582;-34.876;138.628;2023-09-18T13:57:36;100710;;;21.94;51.44
70198;BME280;57582;-34.876;138.628;2023-09-18T14:00:38;100698;;;22.06;50.82
70198;BME280;57582;-34.876;138.628;2023-09-18T14:03:36;100704;;;22.19;50.52
70198;BME280;57582;-34.876;138.628;2023-09-18T14:06:36;100696;;;22.22;50.92
70198;BME280;57582;-34.876;138.628;2023-09-18T14:09:36;100691;;;22.19;51.51
70198;BME280;57582;-34.876;138.628;2023-09-18T14:12:37;100682;;;22.14;51.96
70198;BME280;57582;-34.876;138.628;2023-09-18T14:15:36;100682;;;22.12;52.17
70198;BME280;57582;-34.876;138.628;2023-09-18T14:18:36;100679;;;21.98;52.28
70198;BME280;57582;-34.876;138.628;2023-09-18T14:21:36;100693;;;22.00;52.59
70198;BME280;57582;-34.876;138.628;2023-09-18T14:24:36;100700;;;21.91;52.99
70198;BME280;57582;-34.876;138.628;2023-09-18T14:27:36;100707;;;21.89;52.98
70198;BME280;57582;-34.876;138.628;2023-09-18T14:30:36;100719;;;21.86;53.01
70198;BME280;57582;-34.876;138.628;2023-09-18T14:33:36;100743;;;21.76;53.39
70198;BME280;57582;-34.876;138.628;2023-09-18T14:36:37;100739;;;21.65;53.88
70198;BME280;57582;-34.876;138.628;2023-09-18T14:39:36;100753;;;21.57;54.95
70198;BME280;57582;-34.876;138.628;2023-09-18T14:42:36;100747;;;21.12;56.54
70198;BME280;57582;-34.876;138.628;2023-09-18T14:45:36;100726;;;20.94;57.64
70198;BME280;57582;-34.876;138.628;2023-09-18T14:48:37;100769;;;20.76;58.24
70198;BME280;57582;-34.876;138.628;2023-09-18T14:51:36;100769;;;20.35;59.17
70198;BME280;57582;-34.876;138.628;2023-09-18T14:54:36;100747;;;20.29;59.81
70198;BME280;57582;-34.876;138.628;2023-09-18T14:57:36;100742;;;20.05;60.44
70198;BME280;57582;-34.876;138.628;2023-09-18T15:00:36;100753;;;19.52;62.25
70198;BME280;57582;-34.876;138.628;2023-09-18T15:03:36;100746;;;19.45;62.30
70198;BME280;57582;-34.876;138.628;2023-09-18T15:06:36;100737;;;19.13;63.92
70198;BME280;57582;-34.876;138.628;2023-09-18T15:09:36;100754;;;19.03;64.61
70198;BME280;57582;-34.876;138.628;2023-09-18T15:12:37;100734;;;18.85;65.16
70198;BME280;57582;-34.876;138.628;2023-09-18T15:15:36;100730;;;18.35;67.25
70198;BME280;57582;-34.876;138.628;2023-09-18T15:18:36;100707;;;18.29;67.39
70198;BME280;57582;-34.876;138.628;2023-09-18T15:21:36;100695;;;18.52;66.93
70198;BME280;57582;-34.876;138.628;2023-09-18T15:24:37;100723;;;18.60;66.30
70198;BME280;57582;-34.876;138.628;2023-09-18T15:27:36;100674;;;18.55;66.44
70198;BME280;57582;-34.876;138.628;2023-09-18T15:30:36;100691;;;18.69;65.84
70198;BME280;57582;-34.876;138.628;2023-09-18T15:33:36;100686;;;18.69;65.24
70198;BME280;57582;-34.876;138.628;2023-09-18T15:36:37;100657;;;18.36;66.59
70198;BME280;57582;-34.876;138.628;2023-09-18T15:39:36;100659;;;18.21;66.86
70198;BME280;57582;-34.876;138.628;2023-09-18T15:42:37;100652;;;18.25;67.00
70198;BME280;57582;-34.876;138.628;2023-09-18T15:45:36;100643;;;18.20;66.86
70198;BME280;57582;-34.876;138.628;2023-09-18T15:48:37;100634;;;18.24;66.65
70198;BME280;57582;-34.876;138.628;2023-09-18T15:51:36;100629;;;18.23;66.42
70198;BME280;57582;-34.876;138.628;2023-09-18T15:54:36;100620;;;18.35;66.16